createdAt,value
2023-02-01T15:29:26.231Z,60
2023-02-01T15:34:43.532Z,60
2023-02-01T15:40:00.857Z,60
2023-02-01T15:44:06.829Z,62
2023-02-01T19:54:04.798Z,107
2023-02-01T19:59:22.852Z,101
2023-02-01T20:04:36.577Z,111
2023-02-01T20:09:53.416Z,107
2023-02-01T20:15:10.016Z,110
2023-02-01T20:20:26.473Z,100
2023-02-01T20:25:44.440Z,103
2023-02-01T20:31:01.137Z,110
2023-02-01T20:36:17.966Z,111
2023-02-01T20:57:35.823Z,116
2023-02-01T21:02:53.050Z,117
2023-02-01T21:08:10.017Z,114
2023-02-01T21:13:26.570Z,111
2023-02-01T21:18:43.803Z,121
2023-02-01T21:24:00.288Z,110
2023-02-01T21:29:16.693Z,110
2023-02-01T21:34:33.891Z,108
2023-02-01T21:39:50.486Z,104
2023-02-01T21:45:54.220Z,107
2023-02-01T21:51:11.365Z,108
2023-02-01T21:56:28.436Z,98
2023-02-01T22:01:44.902Z,96
2023-02-01T22:07:01.741Z,103
2023-02-01T22:12:18.991Z,98
2023-02-01T22:17:35.900Z,100
2023-02-01T22:22:53.069Z,96
2023-02-01T22:28:33.070Z,93
2023-02-01T22:33:27.063Z,94
2023-02-01T22:38:43.929Z,94
2023-02-01T22:44:00.209Z,90
2023-02-01T22:49:17.304Z,94
2023-02-01T22:54:33.299Z,87
2023-02-01T22:59:50.457Z,90
2023-02-01T23:05:07.008Z,83
2023-02-01T23:10:23.808Z,91
2023-02-01T23:15:40.085Z,87
2023-02-01T23:20:57.183Z,86
2023-02-01T23:26:13.998Z,88
2023-02-01T23:31:30.403Z,84
2023-02-01T23:36:46.958Z,87
2023-02-01T23:42:03.206Z,87
2023-02-01T23:47:20.468Z,87
2023-02-01T23:52:36.934Z,84
2023-02-01T23:57:54.220Z,90
